createdAt,value
2022-11-27T00:01:20.115Z,102310.22
2022-11-27T00:03:46.991Z,102303.06
2022-11-27T00:06:16.240Z,102306.94
2022-11-27T00:08:43.753Z,102301.16
2022-11-27T00:11:16.988Z,102294.41
2022-11-27T00:13:43.866Z,102297.47
2022-11-27T00:16:12.085Z,102302.97
2022-11-27T00:18:38.504Z,102302.78
2022-11-27T00:21:07.568Z,102305.38
2022-11-27T00:23:34.662Z,102303.16
2022-11-27T00:26:04.412Z,102308.94
2022-11-27T00:28:31.211Z,102307.41
2022-11-27T00:31:03.401Z,102300.28
2022-11-27T00:33:29.908Z,102306.66
2022-11-27T00:35:56.381Z,102303.06
2022-11-27T00:38:22.521Z,102302.59
2022-11-27T00:40:48.916Z,102304.72
2022-11-27T00:43:15.050Z,102301.31
2022-11-27T00:45:41.410Z,102303.47
2022-11-27T00:48:07.507Z,102312.22
2022-11-27T00:50:34.097Z,102304.50
2022-11-27T00:53:00.402Z,102309.22
2022-11-27T00:55:26.787Z,102302.88
2022-11-27T00:57:52.920Z,102296.78
2022-11-27T01:00:19.866Z,102306.81
2022-11-27T01:02:46.033Z,102301.91
2022-11-27T01:05:12.802Z,102302.88
2022-11-27T01:07:39.022Z,102307.31
2022-11-27T01:10:06.587Z,102305.88
2022-11-27T01:12:32.836Z,102308.97
2022-11-27T01:14:59.233Z,102302.31
2022-11-27T01:17:25.373Z,102307.72
2022-11-27T01:19:51.734Z,102311.56
2022-11-27T01:22:17.872Z,102316.19
2022-11-27T01:24:44.294Z,102316.38
2022-11-27T01:27:10.689Z,102320.25
2022-11-27T01:29:37.095Z,102323.50
2022-11-27T01:32:03.243Z,102327.94
2022-11-27T01:34:29.786Z,102322.75
2022-11-27T01:36:55.873Z,102321.97
2022-11-27T01:39:23.783Z,102314.84
2022-11-27T01:41:50.046Z,102305.88
2022-11-27T01:44:22.674Z,102302.31
2022-11-27T01:46:53.069Z,102301.94
2022-11-27T01:49:33.498Z,102304.53
2022-11-27T01:52:18.108Z,102298.44
2022-11-27T01:54:55.885Z,102297.47
2022-11-27T01:57:26.549Z,102305.69
2022-11-27T01:59:55.740Z,102300.19
2022-11-27T02:02:21.903Z,102297.47
2022-11-27T02:04:48.436Z,102315.41
2022-11-27T02:07:14.953Z,102312.91
2022-11-27T02:09:41.551Z,102310.41
2022-11-27T02:12:15.401Z,102314.34
2022-11-27T02:14:59.141Z,102313.59
2022-11-27T02:17:42.727Z,102320.25
2022-11-27T02:20:39.659Z,102318.41
2022-11-27T02:23:39.918Z,102311.94
2022-11-27T02:26:21.301Z,102316.78
2022-11-27T02:28:56.560Z,102311.28
2022-11-27T02:32:01.471Z,102310.31
2022-11-27T02:34:52.886Z,102306.94
2022-11-27T02:37:50.118Z,102304.03
2022-11-27T02:40:31.367Z,102311.75
2022-11-27T02:43:12.247Z,102307.91
2022-11-27T02:45:42.572Z,102300.75
2022-11-27T02:48:11.830Z,102298.53
2022-11-27T02:50:41.064Z,102306.75
2022-11-27T02:53:12.506Z,102305.78
2022-11-27T02:55:39.800Z,102293.03
2022-11-27T02:58:11.936Z,102298.06
2022-11-27T03:00:41.376Z,102296.63
2022-11-27T03:03:11.646Z,102292.88
2022-11-27T03:05:41.641Z,102305.00
2022-11-27T03:08:23.660Z,102300.56
2022-11-27T03:10:49.762Z,102300.97
2022-11-27T03:13:16.621Z,102288.72
2022-11-27T03:16:09.597Z,102285.34
2022-11-27T03:19:01.632Z,102285.06
2022-11-27T03:21:38.758Z,102298.94
2022-11-27T03:24:06.786Z,102293.72
2022-11-27T03:26:33.214Z,102291.22
2022-11-27T03:29:02.098Z,102292.09
2022-11-27T03:31:30.452Z,102296.44
2022-11-27T03:33:57.007Z,102282.34
2022-11-27T03:36:23.270Z,102280.59
2022-11-27T03:38:51.954Z,102281.56
2022-11-27T03:41:23.287Z,102278.38
2022-11-27T03:44:07.773Z,102270.34
2022-11-27T03:46:55.916Z,102258.31
2022-11-27T03:49:39.787Z,102267.28
2022-11-27T03:52:28.116Z,102265.44
2022-11-27T03:55:05.900Z,102263.88
2022-11-27T03:57:51.783Z,102269.66
2022-11-27T04:00:18.702Z,102264.63
2022-11-27T04:02:51.220Z,102263.22
2022-11-27T04:05:18.597Z,102266.84
2022-11-27T04:07:44.680Z,102271.44
2022-11-27T04:10:12.176Z,102264.09
2022-11-27T04:12:38.547Z,102271.22
2022-11-27T04:15:06.299Z,102261.38
2022-11-27T04:17:32.574Z,102259.25
2022-11-27T04:19:58.949Z,102256.19
2022-11-27T04:22:25.073Z,102250.00
2022-11-27T04:24:51.638Z,102251.19
2022-11-27T04:27:17.828Z,102235.47
2022-11-27T04:29:44.444Z,102243.47
2022-11-27T04:32:10.537Z,102233.06
2022-11-27T04:34:36.880Z,102237.66
2022-11-27T04:37:03.022Z,102232.66
2022-11-27T04:39:30.057Z,102230.41
2022-11-27T04:41:56.199Z,102224.94
2022-11-27T04:44:22.725Z,102229.28
2022-11-27T04:46:49.562Z,102225.53
2022-11-27T04:49:18.128Z,102241.00
2022-11-27T04:51:45.108Z,102235.50
2022-11-27T04:54:11.954Z,102232.78
2022-11-27T04:56:38.664Z,102225.66
2022-11-27T04:59:05.347Z,102226.41
2022-11-27T05:01:31.934Z,102240.69
2022-11-27T05:03:58.535Z,102239.59
2022-11-27T05:06:24.828Z,102242.31
2022-11-27T05:08:58.929Z,102245.50
2022-11-27T05:11:26.134Z,102248.09
2022-11-27T05:14:12.584Z,102242.31
2022-11-27T05:16:39.165Z,102243.06
2022-11-27T05:19:05.680Z,102246.25
2022-11-27T05:21:32.913Z,102252.88
2022-11-27T05:23:59.349Z,102260.16
2022-11-27T05:26:25.583Z,102267.97
2022-11-27T05:28:52.077Z,102267.38
2022-11-27T05:31:18.370Z,102264.59
2022-11-27T05:33:44.821Z,102255.78
2022-11-27T05:36:10.998Z,102252.88
2022-11-27T05:38:37.637Z,102256.34
2022-11-27T05:41:04.143Z,102254.72
2022-11-27T05:43:30.694Z,102257.81
2022-11-27T05:45:57.058Z,102256.09
2022-11-27T05:48:23.519Z,102254.81
2022-11-27T05:50:49.691Z,102255.09
2022-11-27T05:53:16.369Z,102252.69
2022-11-27T05:55:42.784Z,102247.38
2022-11-27T05:58:09.404Z,102260.41
2022-11-27T06:00:35.899Z,102260.53
2022-11-27T06:03:02.718Z,102260.81
2022-11-27T06:05:29.338Z,102273.66
2022-11-27T06:07:56.132Z,102271.13
2022-11-27T06:10:22.467Z,102275.28
2022-11-27T06:12:48.963Z,102270.09
2022-11-27T06:15:15.213Z,102276.94
2022-11-27T06:17:41.553Z,102274.31
2022-11-27T06:20:07.985Z,102273.25
2022-11-27T06:22:34.306Z,102275.69
2022-11-27T06:25:00.485Z,102280.50
2022-11-27T06:27:32.884Z,102276.66
2022-11-27T06:29:59.012Z,102278.75
2022-11-27T06:32:25.507Z,102270.16
2022-11-27T06:34:52.799Z,102270.25
2022-11-27T06:37:19.258Z,102272.56
2022-11-27T06:39:47.571Z,102270.75
2022-11-27T06:42:14.272Z,102275.69
2022-11-27T06:44:43.422Z,102276.25
2022-11-27T06:47:10.155Z,102278.97
2022-11-27T06:49:36.376Z,102275.88
2022-11-27T06:52:02.917Z,102277.25
2022-11-27T06:54:29.067Z,102278.97
2022-11-27T06:56:55.958Z,102275.00
2022-11-27T06:59:22.233Z,102282.63
2022-11-27T07:01:50.176Z,102276.34
2022-11-27T07:04:16.473Z,102281.84
2022-11-27T07:06:43.186Z,102278.19
2022-11-27T07:09:09.715Z,102280.50
2022-11-27T07:11:37.802Z,102282.03
2022-11-27T07:14:05.052Z,102281.63
2022-11-27T07:16:34.319Z,102283.88
2022-11-27T07:19:05.254Z,102276.81
2022-11-27T07:21:32.877Z,102276.44
2022-11-27T07:24:00.660Z,102272.56
2022-11-27T07:26:29.277Z,102282.31
2022-11-27T07:28:56.482Z,102265.53
2022-11-27T07:31:27.511Z,102264.59
2022-11-27T07:33:54.141Z,102278.97
2022-11-27T07:36:23.308Z,102266.19
2022-11-27T07:38:50.012Z,102267.53
2022-11-27T07:41:18.019Z,102255.56
2022-11-27T07:43:45.743Z,102266.56
2022-11-27T07:46:18.665Z,102265.00
2022-11-27T07:48:45.847Z,102264.31
2022-11-27T07:51:15.515Z,102266.22
2022-11-27T07:53:42.159Z,102266.13
2022-11-27T07:56:11.598Z,102265.28
2022-11-27T07:58:38.135Z,102260.91
2022-11-27T08:01:10.601Z,102270.09
2022-11-27T08:03:37.560Z,102262.66
2022-11-27T08:06:05.193Z,102265.56
2022-11-27T08:08:34.097Z,102255.50
2022-11-27T08:11:00.729Z,102267.09
2022-11-27T08:13:28.527Z,102264.19
2022-11-27T08:15:59.146Z,102263.22
2022-11-27T08:18:25.316Z,102270.25
2022-11-27T08:20:51.785Z,102267.09
2022-11-27T08:23:17.916Z,102266.47
2022-11-27T08:25:44.817Z,102271.81
2022-11-27T08:28:10.968Z,102266.50
2022-11-27T08:30:37.654Z,102271.41
2022-11-27T08:33:03.876Z,102271.81
2022-11-27T08:35:30.301Z,102267.59
2022-11-27T08:37:56.842Z,102272.59
2022-11-27T08:40:23.474Z,102269.00
2022-11-27T08:42:49.563Z,102267.19
2022-11-27T08:45:15.924Z,102256.56
2022-11-27T08:47:42.792Z,102267.19
2022-11-27T08:50:09.473Z,102261.88
2022-11-27T08:52:35.887Z,102274.13
2022-11-27T08:55:03.102Z,102270.22
2022-11-27T08:57:29.251Z,102279.22
2022-11-27T08:59:55.677Z,102258.53
2022-11-27T09:02:21.865Z,102265.38
2022-11-27T09:04:48.520Z,102262.31
2022-11-27T09:07:16.058Z,102259.00
2022-11-27T09:09:42.700Z,102260.63
2022-11-27T09:12:09.050Z,102259.78
2022-11-27T09:14:35.659Z,102254.03
2022-11-27T09:17:01.940Z,102256.97
2022-11-27T09:19:28.802Z,102243.31
2022-11-27T09:21:55.576Z,102252.75
2022-11-27T09:24:22.177Z,102261.75
2022-11-27T09:26:48.423Z,102257.53
2022-11-27T09:29:15.450Z,102260.31
2022-11-27T09:31:41.956Z,102261.31
2022-11-27T09:34:08.677Z,102256.22
2022-11-27T09:36:35.177Z,102239.09
2022-11-27T09:39:02.959Z,102247.53
2022-11-27T09:41:54.165Z,102242.03
2022-11-27T09:44:32.804Z,102244.53
2022-11-27T09:47:06.007Z,102243.00
2022-11-27T09:49:42.084Z,102238.78
2022-11-27T09:52:21.871Z,102243.97
2022-11-27T09:55:24.396Z,102239.97
2022-11-27T09:58:16.835Z,102236.06
2022-11-27T10:00:47.480Z,102235.00
2022-11-27T10:03:24.990Z,102230.97
2022-11-27T10:06:02.848Z,102222.09
2022-11-27T10:08:47.259Z,102230.88
2022-11-27T10:11:25.721Z,102233.56
2022-11-27T10:14:23.317Z,102220.16
2022-11-27T10:17:08.516Z,102214.84
2022-11-27T10:19:43.953Z,102224.81
2022-11-27T10:22:16.601Z,102202.81
2022-11-27T10:24:58.381Z,102212.34
2022-11-27T10:27:33.147Z,102208.31
2022-11-27T10:30:04.200Z,102205.25
2022-11-27T10:32:54.515Z,102207.47
2022-11-27T10:35:23.489Z,102204.56
2022-11-27T10:38:06.737Z,102193.28
2022-11-27T10:40:45.651Z,102184.56
2022-11-27T10:43:18.810Z,102187.44
2022-11-27T10:45:51.004Z,102180.34
2022-11-27T10:48:18.194Z,102173.44
2022-11-27T10:50:47.921Z,102176.25
2022-11-27T10:53:24.579Z,102183.81
2022-11-27T10:56:13.151Z,102182.22
2022-11-27T10:58:46.704Z,102179.38
2022-11-27T11:01:18.254Z,102175.09
2022-11-27T11:03:44.848Z,102170.97
2022-11-27T11:06:24.543Z,102171.53
2022-11-27T11:09:22.928Z,102167.38
2022-11-27T11:11:51.584Z,102173.03
2022-11-27T11:14:25.958Z,102170.63
2022-11-27T11:16:54.061Z,102169.47
2022-11-27T11:19:34.416Z,102166.88
2022-11-27T11:22:14.556Z,102174.22
2022-11-27T11:24:46.488Z,102168.06
2022-11-27T11:27:26.481Z,102176.50
2022-11-27T11:29:57.828Z,102163.94
2022-11-27T11:32:27.701Z,102169.91
2022-11-27T11:35:25.159Z,102165.91
2022-11-27T11:37:52.654Z,102172.31
2022-11-27T11:40:19.073Z,102164.94
2022-11-27T11:42:58.111Z,102158.75
2022-11-27T11:45:30.015Z,102166.31
2022-11-27T11:48:01.877Z,102162.22
2022-11-27T11:50:40.376Z,102171.75
2022-11-27T11:53:31.287Z,102176.81
2022-11-27T11:56:05.445Z,102160.59
2022-11-27T11:58:40.472Z,102159.59
2022-11-27T12:01:27.448Z,102172.81
2022-11-27T12:04:19.042Z,102164.56
2022-11-27T12:06:59.462Z,102145.75
2022-11-27T12:09:40.532Z,102155.31
2022-11-27T12:12:37.061Z,102153.25
2022-11-27T12:15:21.482Z,102160.69
2022-11-27T12:17:54.354Z,102149.66
2022-11-27T12:20:30.245Z,102154.22
2022-11-27T12:23:18.636Z,102153.78
2022-11-27T12:25:53.065Z,102146.19
2022-11-27T12:28:32.148Z,102146.06
2022-11-27T12:31:02.185Z,102145.84
2022-11-27T12:33:48.361Z,102149.53
2022-11-27T12:37:00.174Z,102151.81
2022-11-27T12:39:48.809Z,102141.41
2022-11-27T12:42:32.396Z,102142.16
2022-11-27T12:45:14.006Z,102140.84
2022-11-27T12:47:43.021Z,102145.28
2022-11-27T12:50:34.245Z,102141.47
2022-11-27T12:53:24.980Z,102127.00
2022-11-27T12:56:23.931Z,102131.72
2022-11-27T12:59:01.469Z,102129.25
2022-11-27T13:01:35.100Z,102129.50
2022-11-27T13:04:30.581Z,102128.03
2022-11-27T13:07:27.905Z,102130.00
2022-11-27T13:10:16.551Z,102124.28
2022-11-27T13:12:49.994Z,102116.59
2022-11-27T13:15:43.697Z,102105.09
2022-11-27T13:18:19.646Z,102117.78
2022-11-27T13:20:52.156Z,102120.84
2022-11-27T13:23:20.625Z,102111.09
2022-11-27T13:25:53.552Z,102116.50
2022-11-27T13:28:23.423Z,102106.56
2022-11-27T13:30:52.949Z,102099.22
2022-11-27T13:33:43.618Z,102095.81
2022-11-27T13:36:26.438Z,102102.22
2022-11-27T13:39:01.346Z,102094.53
2022-11-27T13:41:39.699Z,102104.84
2022-11-27T13:44:27.928Z,102099.88
2022-11-27T13:47:05.587Z,102098.03
2022-11-27T13:49:39.261Z,102102.13
2022-11-27T13:52:19.533Z,102087.75
2022-11-27T13:55:00.366Z,102090.56
2022-11-27T13:57:28.509Z,102096.84
2022-11-27T14:00:01.168Z,102096.94
2022-11-27T14:02:46.149Z,102084.81
2022-11-27T14:05:19.260Z,102087.97
2022-11-27T14:07:51.696Z,102077.25
2022-11-27T14:10:22.878Z,102084.84
2022-11-27T14:12:57.462Z,102078.69
2022-11-27T14:15:26.420Z,102083.44
2022-11-27T14:18:13.987Z,102074.81
2022-11-27T14:20:57.291Z,102072.84
2022-11-27T14:23:31.518Z,102072.41
2022-11-27T14:26:15.250Z,102072.84
2022-11-27T14:28:44.707Z,102064.09
2022-11-27T14:31:32.621Z,102067.47
2022-11-27T14:34:20.637Z,102054.91
2022-11-27T14:36:51.691Z,102057.84
2022-11-27T14:39:32.472Z,102051.13
2022-11-27T14:42:01.185Z,102048.63
2022-11-27T14:44:27.987Z,102047.56
2022-11-27T14:46:57.407Z,102031.66
2022-11-27T14:49:26.465Z,102035.66
2022-11-27T14:52:02.419Z,102033.50
2022-11-27T14:54:32.401Z,102031.84
2022-11-27T14:56:59.521Z,102034.56
2022-11-27T14:59:26.246Z,102038.13
2022-11-27T15:01:59.040Z,102037.78
2022-11-27T15:04:27.215Z,102040.19
2022-11-27T15:06:56.981Z,102044.63
2022-11-27T15:09:33.828Z,102044.06
2022-11-27T15:12:15.959Z,102049.38
2022-11-27T15:14:54.422Z,102047.31
2022-11-27T15:17:30.892Z,102042.13
2022-11-27T15:20:00.639Z,102042.78
2022-11-27T15:22:30.545Z,102043.84
2022-11-27T15:25:07.603Z,102043.09
2022-11-27T15:27:47.175Z,102047.84
2022-11-27T15:30:18.191Z,102045.03
2022-11-27T15:32:53.982Z,102058.78
2022-11-27T15:35:34.773Z,102059.09
2022-11-27T15:38:10.224Z,102061.69
2022-11-27T15:40:39.333Z,102064.59
2022-11-27T15:43:15.101Z,102061.91
2022-11-27T15:45:42.995Z,102060.50
2022-11-27T15:48:19.719Z,102065.38
2022-11-27T15:50:52.035Z,102074.56
2022-11-27T15:53:19.801Z,102074.88
2022-11-27T15:55:47.136Z,102065.91
2022-11-27T15:58:14.952Z,102031.97
2022-11-27T16:00:41.354Z,102036.41
2022-11-27T16:03:07.866Z,102040.50
2022-11-27T16:05:34.080Z,102037.69
2022-11-27T16:08:00.751Z,102046.97
2022-11-27T16:10:27.009Z,102038.13
2022-11-27T16:12:54.385Z,102033.47
2022-11-27T16:15:23.088Z,102034.66
2022-11-27T16:17:51.248Z,102031.84
2022-11-27T16:20:17.596Z,102018.56
2022-11-27T16:22:44.235Z,102016.28
2022-11-27T16:25:12.695Z,102012.59
2022-11-27T16:27:39.538Z,102023.09
2022-11-27T16:30:06.504Z,102013.78
2022-11-27T16:32:37.347Z,102010.22
2022-11-27T16:35:03.970Z,102000.81
2022-11-27T16:37:30.624Z,101990.56
2022-11-27T16:39:57.384Z,101990.88
2022-11-27T16:42:24.322Z,101995.84
2022-11-27T16:44:50.909Z,101998.88
2022-11-27T16:47:17.559Z,101993.69
2022-11-27T16:49:47.904Z,101992.59
2022-11-27T16:52:15.132Z,101997.25
2022-11-27T16:54:41.756Z,101996.81
2022-11-27T16:57:08.504Z,101994.22
2022-11-27T16:59:37.530Z,101998.94
2022-11-27T17:02:05.237Z,101997.88
2022-11-27T17:04:31.497Z,101980.25
2022-11-27T17:06:59.376Z,101992.25
2022-11-27T17:09:28.747Z,101994.22
2022-11-27T17:11:55.297Z,101985.34
2022-11-27T17:14:26.190Z,101991.50
2022-11-27T17:16:52.998Z,101987.72
2022-11-27T17:19:23.387Z,101978.44
2022-11-27T17:21:50.399Z,101976.94
2022-11-27T17:24:17.649Z,101982.31
2022-11-27T17:26:46.777Z,101977.66
2022-11-27T17:29:15.465Z,101979.59
2022-11-27T17:31:42.633Z,101987.91
2022-11-27T17:34:13.217Z,101980.16
2022-11-27T17:36:42.386Z,101975.31
2022-11-27T17:39:11.474Z,101966.22
2022-11-27T17:41:39.990Z,101970.22
2022-11-27T17:44:07.427Z,101970.66
2022-11-27T17:46:36.377Z,101960.38
2022-11-27T17:49:06.539Z,101966.34
2022-11-27T17:51:35.778Z,101961.78
2022-11-27T17:54:04.751Z,101955.75
2022-11-27T17:56:33.538Z,101956.09
2022-11-27T17:59:00.684Z,101959.09
2022-11-27T18:01:30.434Z,101960.19
2022-11-27T18:04:00.400Z,101956.41
2022-11-27T18:06:30.930Z,101959.97
2022-11-27T18:08:59.280Z,101963.75
2022-11-27T18:11:29.333Z,101959.84
2022-11-27T18:13:58.893Z,101965.03
2022-11-27T18:16:28.570Z,101957.59
2022-11-27T18:18:56.425Z,101961.16
2022-11-27T18:21:24.412Z,101958.56
2022-11-27T18:27:06.657Z,101958.56
2022-11-27T18:29:26.774Z,101952.28
2022-11-27T18:31:54.810Z,101948.50
2022-11-27T18:34:21.327Z,101939.09
2022-11-27T18:36:49.380Z,101937.16
2022-11-27T18:39:16.202Z,101942.66
2022-11-27T18:41:43.007Z,101938.44
2022-11-27T18:44:09.771Z,101944.28
2022-11-27T18:46:37.953Z,101942.34
2022-11-27T18:49:04.884Z,101932.72
2022-11-27T18:51:34.414Z,101931.00
2022-11-27T18:54:01.408Z,101933.59
2022-11-27T18:56:30.510Z,101935.84
2022-11-27T18:59:02.695Z,101940.50
2022-11-27T19:01:35.414Z,101943.00
2022-11-27T19:04:05.765Z,101937.38
2022-11-27T19:06:35.195Z,101947.97
2022-11-27T19:09:01.536Z,101944.41
2022-11-27T19:11:30.163Z,101940.19
2022-11-27T19:13:57.443Z,101937.69
2022-11-27T19:16:28.288Z,101921.16
2022-11-27T19:18:59.103Z,101917.25
2022-11-27T19:21:27.716Z,101923.28
2022-11-27T19:23:57.490Z,101923.91
2022-11-27T19:26:30.118Z,101916.38
2022-11-27T19:28:59.760Z,101908.69
2022-11-27T19:31:26.954Z,101923.38
2022-11-27T19:33:58.444Z,101909.66
2022-11-27T19:36:25.387Z,101902.44
2022-11-27T19:38:57.482Z,101906.88
2022-11-27T19:41:24.708Z,101902.91
2022-11-27T19:43:50.970Z,101895.34
2022-11-27T19:46:21.072Z,101904.28
2022-11-27T19:48:47.846Z,101898.22
2022-11-27T19:51:15.051Z,101887.88
2022-11-27T19:53:43.657Z,101885.03
2022-11-27T19:56:12.112Z,101885.72
2022-11-27T19:58:38.676Z,101889.06
2022-11-27T20:01:17.659Z,101897.59
2022-11-27T20:03:48.147Z,101893.50
2022-11-27T20:06:17.763Z,101892.97
2022-11-27T20:08:47.070Z,101878.94
2022-11-27T20:11:17.026Z,101880.88
2022-11-27T20:13:44.539Z,101878.41
2022-11-27T20:16:17.662Z,101880.53
2022-11-27T20:18:45.423Z,101880.47
2022-11-27T20:21:21.452Z,101874.84
2022-11-27T20:23:49.777Z,101875.59
2022-11-27T20:26:19.742Z,101876.66
2022-11-27T20:28:46.685Z,101870.28
2022-11-27T20:31:17.647Z,101869.44
2022-11-27T20:33:44.760Z,101855.84
2022-11-27T20:36:14.060Z,101863.38
2022-11-27T20:38:40.928Z,101856.03
2022-11-27T20:41:09.895Z,101854.31
2022-11-27T20:43:36.865Z,101855.72
2022-11-27T20:46:04.417Z,101861.97
2022-11-27T20:48:31.315Z,101855.41
2022-11-27T20:51:07.863Z,101852.91
2022-11-27T20:53:36.950Z,101860.38
2022-11-27T20:56:06.489Z,101857.66
2022-11-27T20:58:37.813Z,101861.22
2022-11-27T21:01:18.750Z,101846.97
2022-11-27T21:03:46.298Z,101852.06
2022-11-27T21:06:17.440Z,101856.03
2022-11-27T21:08:44.339Z,101849.66
2022-11-27T21:11:30.585Z,101852.59
2022-11-27T21:14:00.974Z,101850.19
2022-11-27T21:16:31.086Z,101852.78
2022-11-27T21:18:59.814Z,101850.97
2022-11-27T21:21:29.520Z,101850.31
2022-11-27T21:23:56.215Z,101852.91
2022-11-27T21:26:23.328Z,101854.53
2022-11-27T21:28:50.568Z,101849.22
2022-11-27T21:31:19.709Z,101845.03
2022-11-27T21:33:53.972Z,101846.97
2022-11-27T21:36:23.866Z,101834.75
2022-11-27T21:38:50.272Z,101835.50
2022-11-27T21:41:18.043Z,101835.63
2022-11-27T21:43:45.086Z,101838.63
2022-11-27T21:46:19.544Z,101832.59
2022-11-27T21:48:47.247Z,101831.28
2022-11-27T21:51:14.678Z,101829.56
2022-11-27T21:53:45.252Z,101836.06
2022-11-27T21:56:14.734Z,101830.19
2022-11-27T21:58:42.436Z,101823.19
2022-11-27T22:01:17.256Z,101827.41
2022-11-27T22:03:46.406Z,101832.13
2022-11-27T22:06:15.391Z,101825.00
2022-11-27T22:08:43.772Z,101816.06
2022-11-27T22:11:17.273Z,101824.34
2022-11-27T22:13:43.894Z,101823.28
2022-11-27T22:16:12.596Z,101811.09
2022-11-27T22:18:39.718Z,101816.47
2022-11-27T22:21:09.891Z,101811.41
2022-11-27T22:23:36.173Z,101814.00
2022-11-27T22:26:04.749Z,101811.59
2022-11-27T22:28:31.304Z,101814.63
2022-11-27T22:30:58.097Z,101803.38
2022-11-27T22:33:24.460Z,101802.72
2022-11-27T22:35:50.917Z,101799.94
2022-11-27T22:38:17.159Z,101793.75
2022-11-27T22:40:44.020Z,101800.75
2022-11-27T22:43:10.610Z,101801.63
2022-11-27T22:45:38.977Z,101795.25
2022-11-27T22:48:05.713Z,101797.19
2022-11-27T22:50:33.345Z,101797.69
2022-11-27T22:52:59.689Z,101801.16
2022-11-27T22:55:27.642Z,101798.44
2022-11-27T22:57:55.305Z,101795.91
2022-11-27T23:00:22.357Z,101793.06
2022-11-27T23:02:48.959Z,101786.94
2022-11-27T23:05:15.806Z,101782.72
2022-11-27T23:07:42.524Z,101786.56
2022-11-27T23:10:09.778Z,101782.66
2022-11-27T23:12:36.058Z,101785.63
2022-11-27T23:15:02.806Z,101789.00
2022-11-27T23:17:29.029Z,101793.13
2022-11-27T23:19:55.560Z,101787.16
2022-11-27T23:22:22.002Z,101786.78
2022-11-27T23:24:48.475Z,101781.22
2022-11-27T23:27:14.640Z,101781.41
2022-11-27T23:29:41.113Z,101779.41
2022-11-27T23:32:07.301Z,101781.03
2022-11-27T23:34:33.724Z,101777.69
2022-11-27T23:36:59.882Z,101783.94
2022-11-27T23:39:26.370Z,101782.53
2022-11-27T23:41:52.599Z,101787.81
2022-11-27T23:44:20.116Z,101781.22
2022-11-27T23:46:47.348Z,101780.13
2022-11-27T23:49:13.925Z,101788.09
2022-11-27T23:51:40.076Z,101786.16
2022-11-27T23:54:08.943Z,101782.41
2022-11-27T23:56:36.372Z,101776.94
2022-11-27T23:59:02.799Z,101774.91
